sensor_id;sensor_type;location;lat;lon;timestamp;pressure;altitude;pressure_sealevel;temperature;humidity
56630;BME280;42502;40.732;-74.254;2023-04-28T00:01:39;101215.69;;;22.51;33.59
56630;BME280;42502;40.732;-74.254;2023-04-28T00:03:39;101221.22;;;22.47;33.74
56630;BME280;42502;40.732;-74.254;2023-04-28T00:05:40;101220.16;;;22.52;33.57
56630;BME280;42502;40.732;-74.254;2023-04-28T00:07:41;101215.56;;;22.47;33.61
56630;BME280;42502;40.732;-74.254;2023-04-28T00:09:42;101218.50;;;22.51;33.63
56630;BME280;42502;40.732;-74.254;2023-04-28T00:11:49;101217.69;;;22.50;33.61
56630;BME280;42502;40.732;-74.254;2023-04-28T00:13:50;101207.84;;;22.44;33.53
56630;BME280;42502;40.732;-74.254;2023-04-28T00:15:51;101198.91;;;22.42;33.47
56630;BME280;42502;40.732;-74.254;2023-04-28T00:17:52;101205.13;;;22.48;33.59
56630;BME280;42502;40.732;-74.254;2023-04-28T00:19:53;101218.84;;;22.49;33.74
56630;BME280;42502;40.732;-74.254;2023-04-28T00:21:57;101220.50;;;22.50;33.58
56630;BME280;42502;40.732;-74.254;2023-04-28T00:23:58;101232.94;;;22.49;33.67
56630;BME280;42502;40.732;-74.254;2023-04-28T00:25:59;101235.75;;;22.49;33.64
56630;BME280;42502;40.732;-74.254;2023-04-28T00:27:59;101235.75;;;22.49;34.00
56630;BME280;42502;40.732;-74.254;2023-04-28T00:30:01;101246.19;;;22.49;33.60
56630;BME280;42502;40.732;-74.254;2023-04-28T00:32:08;101245.84;;;22.50;33.69
56630;BME280;42502;40.732;-74.254;2023-04-28T00:34:09;101238.31;;;22.42;33.61
56630;BME280;42502;40.732;-74.254;2023-04-28T00:36:13;101264.72;;;22.50;33.58
56630;BME280;42502;40.732;-74.254;2023-04-28T00:38:14;101263.91;;;22.49;33.66
56630;BME280;42502;40.732;-74.254;2023-04-28T00:40:18;101269.06;;;22.47;33.75
56630;BME280;42502;40.732;-74.254;2023-04-28T00:42:19;101270.34;;;22.50;33.62
56630;BME280;42502;40.732;-74.254;2023-04-28T00:44:20;101270.22;;;22.46;33.78
56630;BME280;42502;40.732;-74.254;2023-04-28T00:46:26;101256.50;;;22.45;33.95
56630;BME280;42502;40.732;-74.254;2023-04-28T00:48:29;101248.66;;;22.50;33.73
56630;BME280;42502;40.732;-74.254;2023-04-28T00:50:30;101250.97;;;22.48;33.76
56630;BME280;42502;40.732;-74.254;2023-04-28T00:52:31;101249.81;;;22.49;33.74
56630;BME280;42502;40.732;-74.254;2023-04-28T00:54:36;101260.28;;;22.49;33.67
56630;BME280;42502;40.732;-74.254;2023-04-28T00:56:37;101259.91;;;22.50;33.80
56630;BME280;42502;40.732;-74.254;2023-04-28T00:58:39;101262.72;;;22.50;33.80
56630;BME280;42502;40.732;-74.254;2023-04-28T01:00:40;101248.66;;;22.50;33.89
56630;BME280;42502;40.732;-74.254;2023-04-28T01:02:41;101247.00;;;22.49;33.88
56630;BME280;42502;40.732;-74.254;2023-04-28T01:04:45;101243.03;;;22.50;33.74
56630;BME280;42502;40.732;-74.254;2023-04-28T01:06:47;101242.09;;;22.46;33.76
56630;BME280;42502;40.732;-74.254;2023-04-28T01:08:48;101253.44;;;22.50;33.83
56630;BME280;42502;40.732;-74.254;2023-04-28T01:10:55;101240.91;;;22.47;33.80
56630;BME280;42502;40.732;-74.254;2023-04-28T01:12:56;101236.81;;;22.45;33.79
56630;BME280;42502;40.732;-74.254;2023-04-28T01:15:00;101248.53;;;22.47;33.87
56630;BME280;42502;40.732;-74.254;2023-04-28T01:17:02;101253.09;;;22.39;33.84
56630;BME280;42502;40.732;-74.254;2023-04-28T01:19:19;101271.88;;;22.47;33.68
56630;BME280;42502;40.732;-74.254;2023-04-28T01:21:27;101258.53;;;22.44;33.75
56630;BME280;42502;40.732;-74.254;2023-04-28T01:23:32;101265.91;;;22.49;33.96
56630;BME280;42502;40.732;-74.254;2023-04-28T01:25:33;101263.91;;;22.49;33.80
56630;BME280;42502;40.732;-74.254;2023-04-28T01:27:37;101267.88;;;22.48;33.75
56630;BME280;42502;40.732;-74.254;2023-04-28T01:29:37;101281.94;;;22.48;33.82
56630;BME280;42502;40.732;-74.254;2023-04-28T01:31:38;101287.13;;;22.46;33.76
56630;BME280;42502;40.732;-74.254;2023-04-28T01:33:39;101271.19;;;22.38;33.92
56630;BME280;42502;40.732;-74.254;2023-04-28T01:35:43;101287.94;;;22.47;33.81
56630;BME280;42502;40.732;-74.254;2023-04-28T01:37:44;101287.59;;;22.48;33.73
56630;BME280;42502;40.732;-74.254;2023-04-28T01:39:45;101297.22;;;22.47;33.79
56630;BME280;42502;40.732;-74.254;2023-04-28T01:41:46;101296.38;;;22.47;33.81
56630;BME280;42502;40.732;-74.254;2023-04-28T01:43:47;101302.84;;;22.47;33.84
56630;BME280;42502;40.732;-74.254;2023-04-28T01:45:48;101314.13;;;22.47;33.76
56630;BME280;42502;40.732;-74.254;2023-04-28T01:47:48;101316.09;;;22.47;33.70
56630;BME280;42502;40.732;-74.254;2023-04-28T01:49:49;101312.94;;;22.48;33.69
56630;BME280;42502;40.732;-74.254;2023-04-28T01:51:50;101311.16;;;22.44;33.70
56630;BME280;42502;40.732;-74.254;2023-04-28T01:53:51;101322.91;;;22.46;33.88
56630;BME280;42502;40.732;-74.254;2023-04-28T01:55:55;101327.34;;;22.47;33.90
56630;BME280;42502;40.732;-74.254;2023-04-28T01:57:57;101303.75;;;22.27;33.82
56630;BME280;42502;40.732;-74.254;2023-04-28T02:00:02;101338.63;;;22.47;33.74
56630;BME280;42502;40.732;-74.254;2023-04-28T02:02:04;101348.72;;;22.48;33.73
56630;BME280;42502;40.732;-74.254;2023-04-28T02:04:05;101360.78;;;22.48;33.79
56630;BME280;42502;40.732;-74.254;2023-04-28T02:06:06;101354.69;;;22.46;34.02
56630;BME280;42502;40.732;-74.254;2023-04-28T02:08:10;101346.25;;;22.46;33.78
56630;BME280;42502;40.732;-74.254;2023-04-28T02:10:11;101349.53;;;22.48;33.98
56630;BME280;42502;40.732;-74.254;2023-04-28T02:12:12;101339.66;;;22.42;33.88
56630;BME280;42502;40.732;-74.254;2023-04-28T02:14:13;101346.25;;;22.46;33.87
56630;BME280;42502;40.732;-74.254;2023-04-28T02:16:16;101337.81;;;22.46;33.85
56630;BME280;42502;40.732;-74.254;2023-04-28T02:18:17;101343.09;;;22.48;33.90
56630;BME280;42502;40.732;-74.254;2023-04-28T02:20:18;101332.97;;;22.47;33.66
56630;BME280;42502;40.732;-74.254;2023-04-28T02:22:19;101328.19;;;22.47;33.94
56630;BME280;42502;40.732;-74.254;2023-04-28T02:24:22;101328.19;;;22.47;33.91
56630;BME280;42502;40.732;-74.254;2023-04-28T02:26:26;101331.81;;;22.48;33.93
56630;BME280;42502;40.732;-74.254;2023-04-28T02:28:27;101325.38;;;22.47;34.01
56630;BME280;42502;40.732;-74.254;2023-04-28T02:30:31;101311.66;;;22.46;33.98
56630;BME280;42502;40.732;-74.254;2023-04-28T02:32:32;101311.31;;;22.47;34.02
56630;BME280;42502;40.732;-74.254;2023-04-28T02:34:33;101314.94;;;22.48;34.02
56630;BME280;42502;40.732;-74.254;2023-04-28T02:36:34;101319.75;;;22.47;33.96
56630;BME280;42502;40.732;-74.254;2023-04-28T02:38:36;101320.91;;;22.46;33.99
56630;BME280;42502;40.732;-74.254;2023-04-28T02:40:42;101324.19;;;22.48;33.90
56630;BME280;42502;40.732;-74.254;2023-04-28T02:42:43;101329.34;;;22.46;33.84
56630;BME280;42502;40.732;-74.254;2023-04-28T02:44:44;101306.13;;;22.37;34.01
56630;BME280;42502;40.732;-74.254;2023-04-28T02:46:45;101298.03;;;22.35;33.87
56630;BME280;42502;40.732;-74.254;2023-04-28T02:48:46;101304.47;;;22.48;34.14
56630;BME280;42502;40.732;-74.254;2023-04-28T02:50:50;101294.41;;;22.47;33.96
56630;BME280;42502;40.732;-74.254;2023-04-28T02:52:52;101294.41;;;22.47;34.00
56630;BME280;42502;40.732;-74.254;2023-04-28T02:54:53;101305.66;;;22.47;33.82
56630;BME280;42502;40.732;-74.254;2023-04-28T02:56:57;101305.66;;;22.47;34.08
56630;BME280;42502;40.732;-74.254;2023-04-28T02:58:58;101301.19;;;22.46;33.96
56630;BME280;42502;40.732;-74.254;2023-04-28T03:01:01;101308.69;;;22.42;33.75
56630;BME280;42502;40.732;-74.254;2023-04-28T03:03:02;101303.22;;;22.46;34.12
56630;BME280;42502;40.732;-74.254;2023-04-28T03:05:03;101319.25;;;22.45;33.96
56630;BME280;42502;40.732;-74.254;2023-04-28T03:07:04;101313.16;;;22.43;33.85
56630;BME280;42502;40.732;-74.254;2023-04-28T03:09:06;101301.91;;;22.43;33.75
56630;BME280;42502;40.732;-74.254;2023-04-28T03:11:07;101299.09;;;22.43;33.92
56630;BME280;42502;40.732;-74.254;2023-04-28T03:13:08;101293.47;;;22.43;33.86
56630;BME280;42502;40.732;-74.254;2023-04-28T03:15:09;101286.19;;;22.42;33.97
56630;BME280;42502;40.732;-74.254;2023-04-28T03:17:10;101291.00;;;22.42;33.96
56630;BME280;42502;40.732;-74.254;2023-04-28T03:19:13;101291.81;;;22.42;33.64
56630;BME280;42502;40.732;-74.254;2023-04-28T03:21:14;101292.50;;;22.39;33.88
56630;BME280;42502;40.732;-74.254;2023-04-28T03:23:15;101297.78;;;22.41;33.83
56630;BME280;42502;40.732;-74.254;2023-04-28T03:25:16;101305.44;;;22.40;33.84
56630;BME280;42502;40.732;-74.254;2023-04-28T03:27:17;101304.63;;;22.40;33.72
56630;BME280;42502;40.732;-74.254;2023-04-28T03:29:18;101309.41;;;22.39;33.84
56630;BME280;42502;40.732;-74.254;2023-04-28T03:31:19;101314.22;;;22.39;33.83
56630;BME280;42502;40.732;-74.254;2023-04-28T03:33:19;101309.75;;;22.38;33.74
56630;BME280;42502;40.732;-74.254;2023-04-28T03:35:20;101311.75;;;22.37;33.82
56630;BME280;42502;40.732;-74.254;2023-04-28T03:37:21;101307.78;;;22.38;33.64
56630;BME280;42502;40.732;-74.254;2023-04-28T03:39:22;101307.28;;;22.36;33.81
56630;BME280;42502;40.732;-74.254;2023-04-28T03:41:23;101310.47;;;22.34;33.82
56630;BME280;42502;40.732;-74.254;2023-04-28T03:43:24;101306.47;;;22.35;33.74
56630;BME280;42502;40.732;-74.254;2023-04-28T03:45:25;101295.13;;;22.32;33.65
56630;BME280;42502;40.732;-74.254;2023-04-28T03:47:26;101300.03;;;22.35;33.63
56630;BME280;42502;40.732;-74.254;2023-04-28T03:49:27;101296.75;;;22.33;33.73
56630;BME280;42502;40.732;-74.254;2023-04-28T03:51:28;101296.75;;;22.33;33.65
56630;BME280;42502;40.732;-74.254;2023-04-28T03:53:29;101304.03;;;22.34;33.80
56630;BME280;42502;40.732;-74.254;2023-04-28T03:55:30;101308.34;;;22.31;33.80
56630;BME280;42502;40.732;-74.254;2023-04-28T03:57:31;101312.81;;;22.32;33.79
56630;BME280;42502;40.732;-74.254;2023-04-28T03:59:32;101310.00;;;22.32;33.61
56630;BME280;42502;40.732;-74.254;2023-04-28T04:01:33;101311.16;;;22.31;33.81
56630;BME280;42502;40.732;-74.254;2023-04-28T04:03:33;101312.00;;;22.32;33.79
56630;BME280;42502;40.732;-74.254;2023-04-28T04:05:34;101311.16;;;22.31;33.63
56630;BME280;42502;40.732;-74.254;2023-04-28T04:07:35;101315.97;;;22.31;33.77
56630;BME280;42502;40.732;-74.254;2023-04-28T04:09:36;101307.84;;;22.29;33.76
56630;BME280;42502;40.732;-74.254;2023-04-28T04:11:37;101317.13;;;22.30;33.66
56630;BME280;42502;40.732;-74.254;2023-04-28T04:13:38;101288.03;;;22.13;33.69
56630;BME280;42502;40.732;-74.254;2023-04-28T04:15:38;101314.31;;;22.30;33.59
56630;BME280;42502;40.732;-74.254;2023-04-28T04:17:39;101319.47;;;22.28;33.69
56630;BME280;42502;40.732;-74.254;2023-04-28T04:19:40;101292.47;;;22.14;33.67
56630;BME280;42502;40.732;-74.254;2023-04-28T04:21:42;101330.72;;;22.28;33.62
56630;BME280;42502;40.732;-74.254;2023-04-28T04:23:42;101332.59;;;22.24;33.69
56630;BME280;42502;40.732;-74.254;2023-04-28T04:25:43;101322.50;;;22.23;33.60
56630;BME280;42502;40.732;-74.254;2023-04-28T04:27:44;101327.78;;;22.24;33.67
56630;BME280;42502;40.732;-74.254;2023-04-28T04:29:48;101328.63;;;22.25;33.67
56630;BME280;42502;40.732;-74.254;2023-04-28T04:31:49;101324.97;;;22.24;33.70
56630;BME280;42502;40.732;-74.254;2023-04-28T04:33:50;101314.91;;;22.23;33.67
56630;BME280;42502;40.732;-74.254;2023-04-28T04:35:51;101310.31;;;22.18;33.82
56630;BME280;42502;40.732;-74.254;2023-04-28T04:37:52;101314.06;;;22.23;33.57
56630;BME280;42502;40.732;-74.254;2023-04-28T04:39:56;101312.09;;;22.23;33.69
56630;BME280;42502;40.732;-74.254;2023-04-28T04:41:57;101316.88;;;22.23;33.78
56630;BME280;42502;40.732;-74.254;2023-04-28T04:43:58;101324.50;;;22.22;33.59
56630;BME280;42502;40.732;-74.254;2023-04-28T04:45:59;101332.94;;;22.22;33.59
56630;BME280;42502;40.732;-74.254;2023-04-28T04:48:00;101321.22;;;22.20;33.61
56630;BME280;42502;40.732;-74.254;2023-04-28T04:50:01;101319.56;;;22.19;33.55
56630;BME280;42502;40.732;-74.254;2023-04-28T04:52:02;101303.03;;;22.17;33.74
56630;BME280;42502;40.732;-74.254;2023-04-28T04:54:03;101305.50;;;22.19;33.61
56630;BME280;42502;40.732;-74.254;2023-04-28T04:56:04;101294.50;;;22.14;33.38
56630;BME280;42502;40.732;-74.254;2023-04-28T04:58:05;101293.28;;;22.15;33.74
56630;BME280;42502;40.732;-74.254;2023-04-28T05:00:07;101299.41;;;22.17;33.68
56630;BME280;42502;40.732;-74.254;2023-04-28T05:02:08;101292.13;;;22.16;33.54
56630;BME280;42502;40.732;-74.254;2023-04-28T05:04:09;101291.31;;;22.15;33.71
56630;BME280;42502;40.732;-74.254;2023-04-28T05:06:10;101301.75;;;22.15;33.50
56630;BME280;42502;40.732;-74.254;2023-04-28T05:08:11;101303.75;;;22.14;33.75
56630;BME280;42502;40.732;-74.254;2023-04-28T05:10:12;101300.94;;;22.14;33.55
56630;BME280;42502;40.732;-74.254;2023-04-28T05:12:13;101296.47;;;22.13;33.55
56630;BME280;42502;40.732;-74.254;2023-04-28T05:14:14;101290.38;;;22.11;33.59
56630;BME280;42502;40.732;-74.254;2023-04-28T05:16:15;101293.19;;;22.11;33.44
56630;BME280;42502;40.732;-74.254;2023-04-28T05:18:16;101283.94;;;22.11;33.54
56630;BME280;42502;40.732;-74.254;2023-04-28T05:20:17;101273.72;;;22.06;33.47
56630;BME280;42502;40.732;-74.254;2023-04-28T05:22:18;101277.47;;;22.10;33.52
56630;BME280;42502;40.732;-74.254;2023-04-28T05:24:22;101268.91;;;22.07;33.47
56630;BME280;42502;40.732;-74.254;2023-04-28T05:26:23;101265.75;;;22.08;33.49
56630;BME280;42502;40.732;-74.254;2023-04-28T05:28:24;101260.13;;;22.08;33.59
56630;BME280;42502;40.732;-74.254;2023-04-28T05:30:25;101258.47;;;22.07;33.58
56630;BME280;42502;40.732;-74.254;2023-04-28T05:32:26;101259.31;;;22.08;33.31
56630;BME280;42502;40.732;-74.254;2023-04-28T05:34:27;101257.66;;;22.07;33.51
56630;BME280;42502;40.732;-74.254;2023-04-28T05:36:27;101250.38;;;22.06;33.53
56630;BME280;42502;40.732;-74.254;2023-04-28T05:38:28;101250.38;;;22.06;33.38
56630;BME280;42502;40.732;-74.254;2023-04-28T05:40:31;101245.94;;;22.05;33.59
56630;BME280;42502;40.732;-74.254;2023-04-28T05:42:32;101227.97;;;21.97;33.56
56630;BME280;42502;40.732;-74.254;2023-04-28T05:44:33;101245.47;;;22.03;33.51
56630;BME280;42502;40.732;-74.254;2023-04-28T05:46:34;101242.19;;;22.00;33.32
56630;BME280;42502;40.732;-74.254;2023-04-28T05:48:35;101239.81;;;22.03;33.53
56630;BME280;42502;40.732;-74.254;2023-04-28T05:50:36;101232.59;;;22.02;33.36
56630;BME280;42502;40.732;-74.254;2023-04-28T05:52:37;101238.53;;;22.00;33.45
56630;BME280;42502;40.732;-74.254;2023-04-28T05:54:38;101243.84;;;22.02;33.46
56630;BME280;42502;40.732;-74.254;2023-04-28T05:56:39;101239.72;;;21.99;33.54
56630;BME280;42502;40.732;-74.254;2023-04-28T05:58:40;101244.16;;;22.00;33.44
56630;BME280;42502;40.732;-74.254;2023-04-28T06:00:43;101246.97;;;22.00;33.37
56630;BME280;42502;40.732;-74.254;2023-04-28T06:02:44;101236.91;;;21.99;33.54
56630;BME280;42502;40.732;-74.254;2023-04-28T06:04:45;101231.63;;;21.97;33.31
56630;BME280;42502;40.732;-74.254;2023-04-28T06:06:46;101238.06;;;21.98;33.36
56630;BME280;42502;40.732;-74.254;2023-04-28T06:08:47;101235.25;;;21.98;33.45
56630;BME280;42502;40.732;-74.254;2023-04-28T06:10:48;101242.03;;;21.97;33.51
56630;BME280;42502;40.732;-74.254;2023-04-28T06:12:48;101240.41;;;21.96;33.44
56630;BME280;42502;40.732;-74.254;2023-04-28T06:14:49;101231.97;;;21.96;33.42
56630;BME280;42502;40.732;-74.254;2023-04-28T06:16:52;101234.78;;;21.96;33.42
56630;BME280;42502;40.732;-74.254;2023-04-28T06:18:53;101244.41;;;21.95;33.59
56630;BME280;42502;40.732;-74.254;2023-04-28T06:20:54;101239.94;;;21.94;33.47
56630;BME280;42502;40.732;-74.254;2023-04-28T06:22:55;101239.94;;;21.94;33.47
56630;BME280;42502;40.732;-74.254;2023-04-28T06:24:56;101235.50;;;21.93;33.42
56630;BME280;42502;40.732;-74.254;2023-04-28T06:26:56;101222.59;;;21.92;33.50
56630;BME280;42502;40.732;-74.254;2023-04-28T06:28:57;101216.16;;;21.91;33.48
56630;BME280;42502;40.732;-74.254;2023-04-28T06:30:58;101211.34;;;21.92;33.53
56630;BME280;42502;40.732;-74.254;2023-04-28T06:32:59;101210.03;;;21.89;33.32
56630;BME280;42502;40.732;-74.254;2023-04-28T06:35:00;101211.69;;;21.90;33.32
56630;BME280;42502;40.732;-74.254;2023-04-28T06:37:01;101215.31;;;21.91;33.50
56630;BME280;42502;40.732;-74.254;2023-04-28T06:39:01;101207.22;;;21.89;33.50
56630;BME280;42502;40.732;-74.254;2023-04-28T06:41:02;101212.03;;;21.89;33.21
56630;BME280;42502;40.732;-74.254;2023-04-28T06:43:04;101206.41;;;21.89;33.44
56630;BME280;42502;40.732;-74.254;2023-04-28T06:45:05;101199.16;;;21.88;33.47
56630;BME280;42502;40.732;-74.254;2023-04-28T06:47:06;101195.53;;;21.87;33.33
56630;BME280;42502;40.732;-74.254;2023-04-28T06:49:07;101191.06;;;21.86;33.47
56630;BME280;42502;40.732;-74.254;2023-04-28T06:51:08;101193.06;;;21.86;33.35
56630;BME280;42502;40.732;-74.254;2023-04-28T06:53:09;101193.41;;;21.84;33.38
56630;BME280;42502;40.732;-74.254;2023-04-28T06:55:14;101198.22;;;21.83;33.35
56630;BME280;42502;40.732;-74.254;2023-04-28T06:57:16;101194.22;;;21.85;33.41
56630;BME280;42502;40.732;-74.254;2023-04-28T06:59:17;101195.41;;;21.83;33.50
56630;BME280;42502;40.732;-74.254;2023-04-28T07:01:17;101198.22;;;21.83;33.34
56630;BME280;42502;40.732;-74.254;2023-04-28T07:03:18;101189.09;;;21.74;33.31
56630;BME280;42502;40.732;-74.254;2023-04-28T07:05:19;101207.00;;;21.82;33.32
56630;BME280;42502;40.732;-74.254;2023-04-28T07:07:20;101204.56;;;21.80;33.32
56630;BME280;42502;40.732;-74.254;2023-04-28T07:09:21;101196.91;;;21.81;33.43
56630;BME280;42502;40.732;-74.254;2023-04-28T07:11:22;101198.94;;;21.80;33.35
56630;BME280;42502;40.732;-74.254;2023-04-28T07:13:23;101196.13;;;21.80;33.35
56630;BME280;42502;40.732;-74.254;2023-04-28T07:15:24;101201.25;;;21.78;33.55
56630;BME280;42502;40.732;-74.254;2023-04-28T07:17:25;101203.72;;;21.80;33.47
56630;BME280;42502;40.732;-74.254;2023-04-28T07:19:26;101201.25;;;21.78;33.34
56630;BME280;42502;40.732;-74.254;2023-04-28T07:21:27;101201.59;;;21.77;33.20
56630;BME280;42502;40.732;-74.254;2023-04-28T07:23:28;101202.78;;;21.76;33.38
56630;BME280;42502;40.732;-74.254;2023-04-28T07:25:28;101205.25;;;21.77;33.38
56630;BME280;42502;40.732;-74.254;2023-04-28T07:27:29;101194.22;;;21.72;33.44
56630;BME280;42502;40.732;-74.254;2023-04-28T07:29:30;101207.56;;;21.75;33.42
56630;BME280;42502;40.732;-74.254;2023-04-28T07:31:33;101207.31;;;21.68;33.42
56630;BME280;42502;40.732;-74.254;2023-04-28T07:33:34;101205.00;;;21.70;33.34
56630;BME280;42502;40.732;-74.254;2023-04-28T07:35:35;101218.34;;;21.73;33.36
56630;BME280;42502;40.732;-74.254;2023-04-28T07:37:36;101225.63;;;21.74;33.49
56630;BME280;42502;40.732;-74.254;2023-04-28T07:39:37;101215.28;;;21.66;33.42
56630;BME280;42502;40.732;-74.254;2023-04-28T07:41:39;101230.78;;;21.72;33.36
56630;BME280;42502;40.732;-74.254;2023-04-28T07:43:40;101230.66;;;21.69;33.37
56630;BME280;42502;40.732;-74.254;2023-04-28T07:45:41;101236.75;;;21.71;33.29
56630;BME280;42502;40.732;-74.254;2023-04-28T07:47:44;101234.28;;;21.69;33.32
56630;BME280;42502;40.732;-74.254;2023-04-28T07:49:45;101235.94;;;21.70;33.27
56630;BME280;42502;40.732;-74.254;2023-04-28T07:51:46;101232.63;;;21.68;33.38
56630;BME280;42502;40.732;-74.254;2023-04-28T07:53:47;101241.06;;;21.68;33.33
56630;BME280;42502;40.732;-74.254;2023-04-28T07:55:48;101238.25;;;21.68;33.35
56630;BME280;42502;40.732;-74.254;2023-04-28T07:57:48;101236.63;;;21.67;33.31
56630;BME280;42502;40.732;-74.254;2023-04-28T07:59:49;101236.63;;;21.67;33.34
56630;BME280;42502;40.732;-74.254;2023-04-28T08:01:50;101233.81;;;21.67;33.39
56630;BME280;42502;40.732;-74.254;2023-04-28T08:03:51;101231.00;;;21.67;33.36
56630;BME280;42502;40.732;-74.254;2023-04-28T08:05:52;101236.13;;;21.65;33.20
56630;BME280;42502;40.732;-74.254;2023-04-28T08:07:53;101227.69;;;21.65;33.39
56630;BME280;42502;40.732;-74.254;2023-04-28T08:09:54;101224.06;;;21.64;33.46
56630;BME280;42502;40.732;-74.254;2023-04-28T08:11:55;101224.06;;;21.64;33.29
56630;BME280;42502;40.732;-74.254;2023-04-28T08:13:56;101223.25;;;21.64;33.32
56630;BME280;42502;40.732;-74.254;2023-04-28T08:16:00;101216.69;;;21.60;33.36
56630;BME280;42502;40.732;-74.254;2023-04-28T08:18:01;101215.19;;;21.62;33.23
56630;BME280;42502;40.732;-74.254;2023-04-28T08:20:03;101217.16;;;21.62;33.34
56630;BME280;42502;40.732;-74.254;2023-04-28T08:22:05;101207.09;;;21.61;33.41
56630;BME280;42502;40.732;-74.254;2023-04-28T08:24:06;101207.91;;;21.61;33.13
56630;BME280;42502;40.732;-74.254;2023-04-28T08:26:10;101205.44;;;21.60;33.44
56630;BME280;42502;40.732;-74.254;2023-04-28T08:28:11;101203.78;;;21.59;33.29
56630;BME280;42502;40.732;-74.254;2023-04-28T08:30:11;101206.59;;;21.59;33.25
56630;BME280;42502;40.732;-74.254;2023-04-28T08:32:12;101200.16;;;21.58;33.29
56630;BME280;42502;40.732;-74.254;2023-04-28T08:34:13;101199.34;;;21.58;33.24
56630;BME280;42502;40.732;-74.254;2023-04-28T08:36:14;101198.88;;;21.56;33.48
56630;BME280;42502;40.732;-74.254;2023-04-28T08:38:15;101196.41;;;21.54;33.30
56630;BME280;42502;40.732;-74.254;2023-04-28T08:40:17;101206.13;;;21.57;33.39
56630;BME280;42502;40.732;-74.254;2023-04-28T08:42:18;101193.25;;;21.56;33.23
56630;BME280;42502;40.732;-74.254;2023-04-28T08:44:19;101193.25;;;21.56;33.37
56630;BME280;42502;40.732;-74.254;2023-04-28T08:46:23;101198.06;;;21.55;33.20
56630;BME280;42502;40.732;-74.254;2023-04-28T08:48:28;101204.84;;;21.54;33.38
56630;BME280;42502;40.732;-74.254;2023-04-28T08:50:33;101213.28;;;21.54;33.41
56630;BME280;42502;40.732;-74.254;2023-04-28T08:52:35;101206.84;;;21.54;33.33
56630;BME280;42502;40.732;-74.254;2023-04-28T08:54:38;101211.66;;;21.53;33.41
56630;BME280;42502;40.732;-74.254;2023-04-28T08:56:40;101210.81;;;21.53;33.23
56630;BME280;42502;40.732;-74.254;2023-04-28T08:58:44;101203.56;;;21.52;33.26
56630;BME280;42502;40.732;-74.254;2023-04-28T09:00:45;101201.91;;;21.51;33.36
56630;BME280;42502;40.732;-74.254;2023-04-28T09:02:46;101211.16;;;21.51;33.20
56630;BME280;42502;40.732;-74.254;2023-04-28T09:04:47;101208.69;;;21.50;33.34
56630;BME280;42502;40.732;-74.254;2023-04-28T09:06:48;101212.34;;;21.50;33.38
56630;BME280;42502;40.732;-74.254;2023-04-28T09:08:49;101206.19;;;21.48;33.34
56630;BME280;42502;40.732;-74.254;2023-04-28T09:11:09;101208.91;;;21.44;33.24
56630;BME280;42502;40.732;-74.254;2023-04-28T09:13:24;101208.91;;;21.44;33.28
56630;BME280;42502;40.732;-74.254;2023-04-28T09:17:27;101212.16;;;21.46;33.15
56630;BME280;42502;40.732;-74.254;2023-04-28T09:19:35;101211.38;;;21.46;33.22
56630;BME280;42502;40.732;-74.254;2023-04-28T09:21:54;101209.25;;;21.43;33.29
56630;BME280;42502;40.732;-74.254;2023-04-28T09:23:56;101205.75;;;21.46;33.35
56630;BME280;42502;40.732;-74.254;2023-04-28T09:28:18;101201.97;;;21.42;33.26
56630;BME280;42502;40.732;-74.254;2023-04-28T09:30:37;101196.59;;;21.37;33.12
56630;BME280;42502;40.732;-74.254;2023-04-28T09:32:41;101200.00;;;21.42;33.38
56630;BME280;42502;40.732;-74.254;2023-04-28T09:34:45;101194.72;;;21.41;33.21
56630;BME280;42502;40.732;-74.254;2023-04-28T09:36:46;101211.25;;;21.42;33.13
56630;BME280;42502;40.732;-74.254;2023-04-28T09:38:48;101207.94;;;21.40;33.15
56630;BME280;42502;40.732;-74.254;2023-04-28T09:40:56;101203.50;;;21.39;33.44
56630;BME280;42502;40.732;-74.254;2023-04-28T09:42:57;101204.31;;;21.40;33.19
56630;BME280;42502;40.732;-74.254;2023-04-28T09:44:59;101203.50;;;21.39;33.18
56630;BME280;42502;40.732;-74.254;2023-04-28T09:47:18;101209.34;;;21.34;33.14
56630;BME280;42502;40.732;-74.254;2023-04-28T09:49:21;101209.44;;;21.38;33.28
56630;BME280;42502;40.732;-74.254;2023-04-28T09:51:22;101214.25;;;21.37;33.37
56630;BME280;42502;40.732;-74.254;2023-04-28T09:53:25;101190.09;;;21.24;33.29
56630;BME280;42502;40.732;-74.254;2023-04-28T09:55:27;101206.97;;;21.36;33.29
56630;BME280;42502;40.732;-74.254;2023-04-28T09:57:31;101214.13;;;21.34;33.23
56630;BME280;42502;40.732;-74.254;2023-04-28T09:59:32;101212.13;;;21.34;33.26
56630;BME280;42502;40.732;-74.254;2023-04-28T10:01:37;101209.34;;;21.34;33.20
56630;BME280;42502;40.732;-74.254;2023-04-28T10:03:40;101206.53;;;21.34;33.20
56630;BME280;42502;40.732;-74.254;2023-04-28T10:05:42;101186.25;;;21.28;33.33
56630;BME280;42502;40.732;-74.254;2023-04-28T10:07:43;101196.44;;;21.33;33.16
56630;BME280;42502;40.732;-74.254;2023-04-28T10:09:45;101183.78;;;21.27;33.25
56630;BME280;42502;40.732;-74.254;2023-04-28T10:11:50;101198.78;;;21.31;33.38
56630;BME280;42502;40.732;-74.254;2023-04-28T10:13:52;101200.78;;;21.30;33.37
56630;BME280;42502;40.732;-74.254;2023-04-28T10:15:53;101184.13;;;21.25;33.27
56630;BME280;42502;40.732;-74.254;2023-04-28T10:17:54;101188.69;;;21.30;33.37
56630;BME280;42502;40.732;-74.254;2023-04-28T10:19:56;101183.66;;;21.23;33.37
56630;BME280;42502;40.732;-74.254;2023-04-28T10:24:09;101189.41;;;21.27;33.28
56630;BME280;42502;40.732;-74.254;2023-04-28T10:26:15;101187.44;;;21.27;33.23
56630;BME280;42502;40.732;-74.254;2023-04-28T10:28:21;101184.13;;;21.25;33.15